Portada
METAR-TAF:

METAR-TAF

Aeroports :

Logronyo, Espanya

latitud: 42-27N, longitud: 002-20W, altitud: 353 m

Observació

L'informe es va fer fa 32 minuts, a les 12:00 UTC
Vent 6 kt del Oest, variant entre Sud/Sud-Oest i Nord
Temperatura 27°C
Humitat 23%
Pressió 1024 hPa
Visibilitat 10 km o més
sense núvols per sota de 1500 mi sense presència de cumulonimbus.

METAR: LELO 041200Z AUTO 27006KT 210V360 CAVOK 27/04 Q1024

Hora: 14:32 (12:32 UTC)

Pronòstic

L'informe es va fer fa 1 hora i 32 minuts, a les 11:00 UTC
Pronòstic vàlid del 04 a les 12 UTC al 04 a les 21 UTC
Vent 8 kt del Oest
Visibilitat 10 km o més
sense núvols per sota de 1500 mi sense presència de cumulonimbus.
Probabilitat 40% :
Temporalment
l' 04 a les 14 UTC al 04 a les 19 UTC
Vent 10 kt del Nord/Nord-Oest

TAF: LELO 041100Z 0412/0421 27008KT CAVOK PROB40 TEMPO 0414/0419 34010KT

Observacions i pronòstics meteorològics de més de 4000 aeroports (METAR i TAF).

Les estacions disponibles són els punts grocs i vermells al mapa.

Posi el ratolí al punt desitjat per veure el nom de l'estació.

Feu clic per veure les observacions i els pronòstics meteorològics.

Per canviar el mapa: feu clic els botons verds amb una creu de color negre per apropar; al botó verd amb un guió per allunyar la imatge; o en les fletxes verdes per a mapes adjacents.


METAR-TAF: